Time;durP1;ratioP1;P1;durP2;ratioP2;P2;SDS_P1;SDS_P2;PMS_P1;PMS_P2;Temp;Humidity;BMP_temperature;BMP_pressure;BME280_temperature;BME280_humidity;BME280_pressure;Samples;Min_cycle;Max_cycle;Signal;HPM_P1;HPM_P2
2023/03/12 00:01:47;;;;;;;7.45;4.00;;;-0.30;8.00;;;;;;4994658;28;20050;-64
2023/03/12 00:04:14;;;;;;;6.97;3.88;;;-0.30;17.50;;;;;;5013529;28;20058;-62
2023/03/12 00:06:40;;;;;;;10.27;4.28;;;-0.60;21.00;;;;;;4996890;28;20048;-63
2023/03/12 00:09:06;;;;;;;8.60;4.20;;;-0.30;19.90;;;;;;4965661;28;20042;-62
2023/03/12 00:11:31;;;;;;;14.63;4.13;;;-0.60;11.10;;;;;;4982110;28;20362;-62
2023/03/12 00:13:59;;;;;;;13.30;4.53;;;-0.50;9.20;;;;;;5013899;28;20050;-61
2023/03/12 00:16:25;;;;;;;9.00;4.30;;;-0.50;1.00;;;;;;4983282;28;20186;-63
2023/03/12 00:18:53;;;;;;;7.75;3.83;;;-0.40;1.00;;;;;;5012523;28;20041;-61
2023/03/12 00:21:20;;;;;;;9.10;4.00;;;-0.70;1.00;;;;;;4981606;28;20436;-61
2023/03/12 00:23:47;;;;;;;7.85;3.70;;;-0.40;1.00;;;;;;4981010;28;20042;-62
2023/03/12 00:26:13;;;;;;;8.52;4.22;;;-0.60;1.00;;;;;;4998405;28;20049;-62
2023/03/12 00:28:40;;;;;;;11.52;4.57;;;-0.70;1.00;;;;;;5003174;28;20054;-62
2023/03/12 00:31:20;;;;;;;10.02;4.15;;;-0.80;1.00;;;;;;4981274;28;20054;-62
2023/03/12 00:33:48;;;;;;;7.72;3.80;;;-0.50;26.90;;;;;;5011428;28;20068;-62
2023/03/12 00:36:15;;;;;;;7.95;3.38;;;-0.60;19.20;;;;;;4995984;28;20103;-62
2023/03/12 00:38:41;;;;;;;10.48;3.78;;;-0.80;21.20;;;;;;4995807;28;20499;-62
2023/03/12 00:41:07;;;;;;;9.18;3.65;;;-0.80;5.80;;;;;;4983487;28;20069;-62
2023/03/12 00:43:33;;;;;;;6.35;3.50;;;-0.50;21.90;;;;;;5027380;28;20048;-62
2023/03/12 00:45:59;;;;;;;10.20;3.50;;;-0.80;59.00;;;;;;4978006;28;20042;-61
2023/03/12 00:48:25;;;;;;;8.85;3.78;;;-0.80;48.10;;;;;;4977032;28;20038;-63
2023/03/12 00:50:51;;;;;;;8.00;3.65;;;-0.80;55.20;;;;;;4993524;28;21002;-61
2023/03/12 00:53:16;;;;;;;11.07;4.78;;;-0.60;47.20;;;;;;4975445;28;20547;-62
2023/03/12 00:55:42;;;;;;;8.13;3.53;;;-0.80;73.30;;;;;;5007400;28;20515;-62
2023/03/12 00:58:08;;;;;;;7.95;3.90;;;-0.50;56.20;;;;;;4976395;28;20050;-61
2023/03/12 01:00:33;;;;;;;6.05;4.05;;;-0.50;57.70;;;;;;5025350;28;20715;-61
2023/03/12 01:02:59;;;;;;;11.27;4.03;;;-1.00;42.60;;;;;;4974934;28;20125;-61
2023/03/12 01:05:25;;;;;;;11.77;3.75;;;-0.70;10.50;;;;;;5009456;28;20442;-62
2023/03/12 01:07:51;;;;;;;9.25;4.50;;;-1.10;1.00;;;;;;4994207;28;20100;-61
2023/03/12 01:10:18;;;;;;;13.20;4.53;;;-1.00;1.00;;;;;;5002938;28;20161;-62
2023/03/12 01:12:44;;;;;;;11.30;4.68;;;-1.10;1.00;;;;;;4994732;28;20072;-62
2023/03/12 01:15:13;;;;;;;9.07;4.43;;;-1.30;4.10;;;;;;5012053;28;20047;-62
2023/03/12 01:17:39;;;;;;;11.65;4.63;;;-0.90;32.10;;;;;;5007385;28;20247;-63
2023/03/12 01:20:07;;;;;;;9.10;4.88;;;-1.00;42.20;;;;;;5001999;28;20050;-63
2023/03/12 01:22:33;;;;;;;10.23;4.53;;;-1.30;39.10;;;;;;5007204;28;20043;-62
2023/03/12 01:24:59;;;;;;;13.30;5.15;;;-1.00;27.70;;;;;;4974457;28;20536;-62
2023/03/12 01:27:24;;;;;;;10.82;5.07;;;-1.10;60.90;;;;;;4994186;28;20041;-61
2023/03/12 01:29:50;;;;;;;12.13;5.90;;;-1.30;77.80;;;;;;5015929;28;20301;-62
2023/03/12 01:32:16;;;;;;;9.82;4.45;;;-1.20;73.60;;;;;;5009875;28;20077;-63
2023/03/12 01:34:43;;;;;;;8.18;5.15;;;-0.90;72.50;;;;;;5014867;28;20066;-62
2023/03/12 01:37:09;;;;;;;13.20;5.30;;;-1.00;55.50;;;;;;4975596;28;20046;-63
2023/03/12 01:39:35;;;;;;;7.70;4.63;;;-1.10;45.70;;;;;;5006289;28;20518;-63
2023/03/12 01:42:00;;;;;;;8.30;5.00;;;-1.20;81.30;;;;;;4989710;28;20261;-64
2023/03/12 01:44:27;;;;;;;10.63;5.30;;;-0.90;79.30;;;;;;4973575;28;20467;-64
2023/03/12 01:46:53;;;;;;;9.50;5.32;;;-1.00;91.00;;;;;;5005836;28;20046;-64
2023/03/12 01:49:26;;;;;;;9.50;5.13;;;-0.90;79.70;;;;;;4976177;28;20548;-63
2023/03/12 01:52:08;;;;;;;9.13;5.17;;;-1.30;95.30;;;;;;4992124;28;20135;-65
2023/03/12 01:54:37;;;;;;;11.10;5.57;;;-1.00;94.70;;;;;;5015506;28;20363;-64
2023/03/12 01:57:07;;;;;;;12.30;6.05;;;-1.20;85.30;;;;;;5024247;28;20065;-64
2023/03/12 01:59:41;;;;;;;10.40;5.32;;;-1.20;70.40;;;;;;4975697;28;20046;-64
2023/03/12 02:02:08;;;;;;;12.55;5.75;;;-1.40;92.50;;;;;;4991132;28;20065;-64
2023/03/12 02:04:36;;;;;;;12.50;5.80;;;-1.20;99.90;;;;;;4998105;28;20282;-64
2023/03/12 02:07:05;;;;;;;11.75;5.53;;;-1.50;96.40;;;;;;4974839;28;20038;-64
2023/03/12 02:09:37;;;;;;;13.02;5.68;;;-1.30;84.40;;;;;;5007908;28;20651;-64
2023/03/12 02:12:04;;;;;;;13.48;6.05;;;-1.20;89.80;;;;;;5007364;28;20192;-64
2023/03/12 02:14:30;;;;;;;8.88;5.43;;;-1.20;99.90;;;;;;4976213;28;20042;-63
2023/03/12 02:16:56;;;;;;;11.88;6.18;;;-1.50;99.90;;;;;;4989067;28;20738;-62
2023/03/12 02:19:39;;;;;;;10.98;6.07;;;-1.40;99.90;;;;;;5024142;28;20077;-63
2023/03/12 02:22:05;;;;;;;9.13;6.07;;;-0.90;99.90;;;;;;4991234;28;20053;-64
2023/03/12 02:24:48;;;;;;;9.82;5.95;;;-1.00;99.90;;;;;;5013312;28;20313;-63
2023/03/12 02:27:16;;;;;;;10.82;5.57;;;-1.00;99.90;;;;;;4981460;28;20206;-64
2023/03/12 02:29:44;;;;;;;10.25;5.97;;;-0.70;99.90;;;;;;4992290;28;20180;-64
2023/03/12 02:32:18;;;;;;;9.85;6.32;;;-0.80;99.90;;;;;;5011611;28;20045;-64
2023/03/12 02:34:44;;;;;;;14.98;6.13;;;-0.90;99.90;;;;;;4978950;28;20136;-64
2023/03/12 02:37:10;;;;;;;9.93;5.68;;;-0.60;99.90;;;;;;5005343;28;20125;-64
2023/03/12 02:39:38;;;;;;;12.20;5.93;;;-0.50;99.90;;;;;;4973304;28;20045;-63
2023/03/12 02:42:03;;;;;;;7.20;5.15;;;-0.80;99.90;;;;;;5005068;28;20057;-63
2023/03/12 02:44:32;;;;;;;9.90;5.18;;;-0.60;99.90;;;;;;4984151;28;20038;-63
2023/03/12 02:47:00;;;;;;;10.25;5.35;;;-1.00;99.90;;;;;;4997438;28;20034;-63
2023/03/12 02:49:31;;;;;;;9.35;5.75;;;-0.50;99.90;;;;;;4972449;28;20045;-63
2023/03/12 02:51:58;;;;;;;11.43;5.90;;;-0.70;99.90;;;;;;5006908;28;20119;-62
2023/03/12 02:54:24;;;;;;;9.85;5.50;;;-0.70;99.90;;;;;;4980970;28;20050;-64
2023/03/12 02:56:51;;;;;;;9.02;4.63;;;-0.70;99.90;;;;;;4973142;28;20094;-63
2023/03/12 02:59:19;;;;;;;9.70;5.93;;;-0.70;99.90;;;;;;4972892;28;20049;-63
2023/03/12 03:01:45;;;;;;;9.77;5.60;;;-0.80;99.90;;;;;;4992085;28;20045;-64
2023/03/12 03:04:12;;;;;;;12.65;5.30;;;-0.50;99.90;;;;;;4983743;28;20080;-63
2023/03/12 03:06:42;;;;;;;12.10;5.35;;;-0.90;99.90;;;;;;4992783;28;20125;-63
2023/03/12 03:09:07;;;;;;;9.25;5.25;;;-0.80;99.90;;;;;;4991070;28;20038;-63
2023/03/12 03:11:33;;;;;;;8.82;4.45;;;-0.60;99.90;;;;;;4989583;28;20057;-63
2023/03/12 03:13:59;;;;;;;5.75;3.95;;;-0.50;99.90;;;;;;4972853;28;20050;-64
2023/03/12 03:16:24;;;;;;;6.85;4.20;;;-0.50;99.90;;;;;;4971730;28;20042;-63
2023/03/12 03:18:50;;;;;;;9.60;3.95;;;-0.60;99.90;;;;;;5004654;28;20112;-63
2023/03/12 03:21:17;;;;;;;8.57;3.95;;;-0.30;99.90;;;;;;5008873;28;20081;-63
2023/03/12 03:23:48;;;;;;;8.43;4.22;;;-0.50;99.90;;;;;;4972689;28;20125;-63
2023/03/12 03:26:15;;;;;;;9.55;3.97;;;-0.40;99.90;;;;;;5011978;28;20136;-63
2023/03/12 03:28:41;;;;;;;8.90;4.25;;;-0.20;99.90;;;;;;4973133;28;20201;-64
2023/03/12 03:31:07;;;;;;;6.90;3.42;;;-0.10;99.90;;;;;;4977398;28;20082;-62
2023/03/12 03:33:35;;;;;;;9.18;3.60;;;-0.30;99.90;;;;;;4988761;28;20730;-64
2023/03/12 03:36:01;;;;;;;7.57;4.10;;;0.00;99.90;;;;;;5023211;28;20531;-64
2023/03/12 03:38:28;;;;;;;7.80;3.78;;;0.00;99.90;;;;;;4991305;28;20125;-63
2023/03/12 03:40:54;;;;;;;5.40;4.00;;;-0.40;99.90;;;;;;4972619;28;20492;-65
2023/03/12 03:43:21;;;;;;;11.05;4.07;;;-0.20;99.90;;;;;;5004986;28;20046;-63
2023/03/12 03:45:48;;;;;;;8.35;3.83;;;0.00;99.90;;;;;;4972763;28;20039;-62
2023/03/12 03:48:14;;;;;;;5.93;4.20;;;0.20;99.90;;;;;;5017864;28;20096;-63
2023/03/12 03:50:40;;;;;;;11.52;4.30;;;0.20;99.90;;;;;;4973630;28;20046;-64
2023/03/12 03:53:08;;;;;;;11.30;4.65;;;-0.20;99.90;;;;;;5007412;28;20056;-64
2023/03/12 03:55:38;;;;;;;10.40;4.95;;;-0.20;99.90;;;;;;4988282;28;20432;-62
2023/03/12 03:58:05;;;;;;;8.40;4.00;;;-0.20;99.90;;;;;;4973234;28;20054;-62
2023/03/12 04:00:31;;;;;;;12.68;4.60;;;-0.10;99.90;;;;;;4982293;28;20045;-63
2023/03/12 04:02:57;;;;;;;11.75;5.18;;;0.20;99.90;;;;;;5006124;28;20042;-61
2023/03/12 04:05:24;;;;;;;10.25;4.68;;;-0.20;99.90;;;;;;4977458;28;20602;-62
2023/03/12 04:07:52;;;;;;;6.80;3.85;;;0.20;99.90;;;;;;5006851;28;20044;-63
2023/03/12 04:10:23;;;;;;;8.25;3.60;;;0.20;99.90;;;;;;5002962;28;20052;-62
2023/03/12 04:12:49;;;;;;;6.60;4.10;;;0.20;99.90;;;;;;5028635;28;20065;-62
2023/03/12 04:15:15;;;;;;;8.43;2.83;;;0.00;99.90;;;;;;4978450;28;20042;-61
2023/03/12 04:17:41;;;;;;;6.07;3.50;;;0.20;99.90;;;;;;5009769;28;20049;-62
2023/03/12 04:20:08;;;;;;;5.60;3.78;;;0.10;99.90;;;;;;4994876;28;20079;-61
2023/03/12 04:22:34;;;;;;;6.88;3.50;;;0.30;99.90;;;;;;4995172;28;20056;-63
2023/03/12 04:25:00;;;;;;;5.30;3.15;;;-0.10;99.90;;;;;;4981604;28;20042;-63
2023/03/12 04:27:26;;;;;;;6.75;3.17;;;0.10;99.90;;;;;;4977612;28;20488;-63
2023/03/12 04:29:52;;;;;;;7.93;3.08;;;0.20;99.90;;;;;;5002368;28;20052;-62
2023/03/12 04:32:18;;;;;;;10.07;3.08;;;0.00;99.90;;;;;;4992921;28;20560;-62
2023/03/12 04:34:43;;;;;;;6.20;2.70;;;0.20;99.90;;;;;;4983829;28;20108;-62
2023/03/12 04:37:13;;;;;;;5.38;2.63;;;0.10;99.90;;;;;;4993274;28;20046;-62
2023/03/12 04:39:40;;;;;;;7.40;2.85;;;0.30;99.90;;;;;;4978341;28;20050;-63
2023/03/12 04:42:06;;;;;;;8.65;3.13;;;0.30;99.90;;;;;;5027343;28;20134;-62
2023/03/12 04:44:31;;;;;;;4.47;3.10;;;0.10;99.90;;;;;;5016857;28;20213;-64
2023/03/12 04:46:57;;;;;;;4.60;3.42;;;0.20;99.90;;;;;;5009002;28;20236;-62
2023/03/12 04:49:23;;;;;;;6.40;2.95;;;0.30;99.90;;;;;;5010220;28;20049;-63
2023/03/12 04:51:49;;;;;;;6.80;3.00;;;0.40;99.90;;;;;;4975710;28;20050;-62
2023/03/12 04:54:14;;;;;;;6.82;2.42;;;0.30;99.90;;;;;;4992025;28;20610;-63
2023/03/12 04:56:40;;;;;;;6.95;3.38;;;0.30;99.90;;;;;;4974003;28;20034;-64
2023/03/12 04:59:06;;;;;;;8.38;2.85;;;0.40;99.90;;;;;;5025385;28;20479;-64
2023/03/12 05:01:34;;;;;;;7.60;2.75;;;0.50;99.90;;;;;;5026040;28;20057;-63
2023/03/12 05:04:01;;;;;;;8.40;3.80;;;0.30;99.90;;;;;;4992695;28;20158;-62
2023/03/12 05:06:28;;;;;;;6.82;3.28;;;0.50;99.90;;;;;;4992970;28;20096;-63
2023/03/12 05:08:54;;;;;;;6.32;3.63;;;0.40;87.60;;;;;;4985647;28;20069;-65
2023/03/12 05:11:20;;;;;;;6.35;2.83;;;0.60;82.10;;;;;;4975060;28;20080;-61
2023/03/12 05:13:46;;;;;;;5.22;2.50;;;0.50;25.90;;;;;;4978158;28;20053;-63
2023/03/12 05:16:13;;;;;;;7.97;3.17;;;0.60;73.80;;;;;;5009129;28;20261;-63
2023/03/12 05:18:39;;;;;;;7.10;2.88;;;0.70;70.20;;;;;;4993319;28;20049;-63
2023/03/12 05:21:10;;;;;;;5.63;2.85;;;0.70;11.00;;;;;;4993180;28;20057;-63
2023/03/12 05:23:38;;;;;;;4.75;2.90;;;0.70;20.40;;;;;;4989263;28;20046;-63
2023/03/12 05:26:05;;;;;;;6.03;2.38;;;0.70;1.00;;;;;;4994039;28;20174;-62
2023/03/12 05:28:31;;;;;;;6.68;3.10;;;0.70;1.00;;;;;;4992965;28;20190;-63
2023/03/12 05:30:58;;;;;;;6.05;2.92;;;0.70;1.00;;;;;;4994427;28;20740;-63
2023/03/12 05:33:26;;;;;;;6.60;2.92;;;0.70;1.00;;;;;;4990410;28;20046;-63
2023/03/12 05:35:52;;;;;;;7.93;2.88;;;0.70;1.00;;;;;;4993570;28;20064;-63
2023/03/12 05:38:19;;;;;;;7.90;3.25;;;0.70;1.00;;;;;;4991944;28;20045;-62
2023/03/12 05:40:53;;;;;;;5.78;2.67;;;0.70;1.00;;;;;;4991719;28;20368;-62
2023/03/12 05:43:19;;;;;;;8.23;3.00;;;0.70;1.00;;;;;;5025146;28;20469;-62
2023/03/12 05:45:45;;;;;;;10.57;4.18;;;0.60;1.00;;;;;;5007152;28;20125;-62
2023/03/12 05:48:10;;;;;;;7.72;3.13;;;0.70;1.00;;;;;;5006796;28;20038;-62
2023/03/12 05:50:36;;;;;;;6.72;3.00;;;0.70;1.00;;;;;;5006634;28;20439;-62
2023/03/12 05:53:02;;;;;;;9.93;3.00;;;0.70;1.00;;;;;;5006299;28;20054;-63
2023/03/12 05:55:28;;;;;;;6.07;2.92;;;0.80;1.00;;;;;;4975119;28;20049;-63
2023/03/12 05:57:53;;;;;;;6.95;3.03;;;0.80;1.00;;;;;;4974604;28;20046;-62
2023/03/12 06:00:20;;;;;;;9.40;3.03;;;0.80;1.00;;;;;;4989248;28;20073;-63
2023/03/12 06:02:46;;;;;;;8.73;3.17;;;0.80;1.00;;;;;;5006925;28;20540;-64
2023/03/12 06:05:12;;;;;;;7.18;3.75;;;0.80;1.00;;;;;;5006198;28;20061;-63
2023/03/12 06:07:38;;;;;;;5.97;3.42;;;0.80;1.00;;;;;;4989082;28;20038;-63
2023/03/12 06:10:04;;;;;;;6.10;3.60;;;0.90;1.00;;;;;;5006351;28;20290;-62
2023/03/12 06:12:30;;;;;;;6.00;3.55;;;0.80;1.00;;;;;;4989566;28;20206;-63
2023/03/12 06:14:57;;;;;;;7.72;3.65;;;0.90;1.00;;;;;;5006759;28;20045;-62
2023/03/12 06:17:23;;;;;;;9.35;4.03;;;0.90;1.00;;;;;;5024644;28;20588;-62
2023/03/12 06:19:52;;;;;;;8.65;4.28;;;0.90;1.00;;;;;;4984140;28;20038;-62
2023/03/12 06:22:18;;;;;;;11.50;3.80;;;1.00;1.00;;;;;;5024365;28;20054;-63
2023/03/12 06:24:46;;;;;;;8.35;3.60;;;0.90;1.00;;;;;;4978675;28;20042;-63
2023/03/12 06:27:13;;;;;;;9.45;4.00;;;1.00;1.00;;;;;;4993525;28;20053;-62
2023/03/12 06:29:39;;;;;;;9.32;3.92;;;1.00;1.00;;;;;;4982517;28;20512;-63
2023/03/12 06:32:05;;;;;;;8.45;4.10;;;0.90;1.00;;;;;;4974985;28;20162;-62
2023/03/12 06:34:31;;;;;;;9.68;3.90;;;0.90;1.00;;;;;;4989475;28;20742;-63
2023/03/12 06:36:57;;;;;;;7.07;4.43;;;0.90;1.00;;;;;;5009561;28;20532;-63
2023/03/12 06:39:23;;;;;;;8.15;4.28;;;0.90;1.00;;;;;;4981174;28;20060;-61
2023/03/12 06:41:49;;;;;;;7.90;4.35;;;0.90;1.00;;;;;;5024729;28;20038;-61
2023/03/12 06:44:15;;;;;;;8.93;4.47;;;1.00;1.00;;;;;;4991683;28;20038;-63
2023/03/12 06:46:43;;;;;;;7.75;4.13;;;0.90;1.00;;;;;;4985974;28;20035;-62
2023/03/12 06:49:09;;;;;;;8.13;5.07;;;0.90;1.00;;;;;;4984809;28;20201;-62
2023/03/12 06:51:35;;;;;;;11.38;5.13;;;0.90;1.00;;;;;;5005943;28;20118;-61
2023/03/12 06:54:01;;;;;;;13.10;4.45;;;1.00;1.00;;;;;;4989243;28;20122;-62
2023/03/12 06:56:28;;;;;;;8.30;4.63;;;1.00;1.00;;;;;;4975884;28;20082;-62
2023/03/12 06:58:53;;;;;;;7.40;4.63;;;1.00;1.00;;;;;;4984250;28;20523;-62
2023/03/12 07:01:19;;;;;;;12.30;5.30;;;1.00;1.00;;;;;;4974372;28;20145;-61
2023/03/12 07:03:45;;;;;;;10.88;5.18;;;1.10;1.00;;;;;;5005982;28;20667;-62
2023/03/12 07:06:28;;;;;;;9.63;5.40;;;1.00;99.90;;;;;;4989382;28;20133;-62
2023/03/12 07:08:54;;;;;;;7.72;4.75;;;1.10;99.90;;;;;;4984268;28;20113;-62
2023/03/12 07:11:20;;;;;;;11.48;5.25;;;1.20;99.90;;;;;;5005329;28;20550;-61
2023/03/12 07:13:45;;;;;;;9.52;5.00;;;1.20;1.00;;;;;;5006183;28;20451;-63
2023/03/12 07:16:11;;;;;;;10.43;5.30;;;1.30;1.00;;;;;;5004426;28;20050;-63
2023/03/12 07:18:37;;;;;;;8.95;4.78;;;1.30;99.90;;;;;;4973700;28;20061;-63
2023/03/12 07:21:03;;;;;;;7.25;4.68;;;1.40;99.90;;;;;;4973588;28;20053;-64
2023/03/12 07:23:29;;;;;;;9.10;4.75;;;1.50;99.90;;;;;;4994327;28;20380;-64
2023/03/12 07:25:54;;;;;;;9.18;5.53;;;1.40;99.90;;;;;;4990680;28;20047;-64
2023/03/12 07:28:21;;;;;;;8.10;4.85;;;1.50;99.90;;;;;;4986461;28;20105;-64
2023/03/12 07:30:49;;;;;;;10.07;5.30;;;1.60;99.90;;;;;;4988573;28;20077;-63
2023/03/12 07:33:20;;;;;;;7.75;5.07;;;1.70;99.90;;;;;;4974396;28;20311;-63
2023/03/12 07:35:47;;;;;;;8.55;4.32;;;1.70;99.90;;;;;;4990033;28;20511;-62
2023/03/12 07:38:13;;;;;;;9.57;4.68;;;1.80;99.90;;;;;;4974937;28;20129;-62
2023/03/12 07:40:38;;;;;;;8.93;5.00;;;1.90;99.90;;;;;;5009723;28;20131;-61
2023/03/12 07:43:10;;;;;;;9.63;4.40;;;2.00;99.90;;;;;;4989667;28;20183;-62
2023/03/12 07:45:39;;;;;;;8.80;4.72;;;2.00;99.90;;;;;;5026244;28;20042;-64
2023/03/12 07:48:06;;;;;;;5.90;4.38;;;2.00;99.90;;;;;;4994552;28;20042;-62
2023/03/12 07:50:32;;;;;;;7.55;4.68;;;2.00;99.90;;;;;;4992923;28;20508;-63
2023/03/12 07:52:58;;;;;;;10.02;5.15;;;2.00;99.90;;;;;;4977752;28;20038;-62
2023/03/12 07:55:24;;;;;;;12.30;4.80;;;2.00;99.90;;;;;;4978691;28;20042;-63
2023/03/12 07:57:49;;;;;;;8.38;4.85;;;2.00;99.90;;;;;;4994113;28;20488;-65
2023/03/12 08:00:16;;;;;;;9.90;4.68;;;1.90;99.90;;;;;;4991934;28;20327;-61
2023/03/12 08:02:41;;;;;;;7.10;4.93;;;1.90;99.90;;;;;;4995310;28;20042;-62
2023/03/12 08:05:07;;;;;;;11.75;5.95;;;1.90;99.90;;;;;;4979478;28;20532;-63
2023/03/12 08:07:34;;;;;;;8.88;4.80;;;1.90;99.90;;;;;;4977624;28;20323;-62
2023/03/12 08:10:06;;;;;;;12.10;5.03;;;1.90;99.90;;;;;;5010421;28;20038;-62
2023/03/12 08:12:32;;;;;;;9.80;5.30;;;1.90;99.90;;;;;;4994121;28;20042;-64
2023/03/12 08:14:58;;;;;;;9.95;5.35;;;1.90;99.90;;;;;;4977083;28;20515;-62
2023/03/12 08:17:24;;;;;;;11.07;4.95;;;1.90;99.90;;;;;;4977543;28;20042;-64
2023/03/12 08:19:50;;;;;;;10.07;5.30;;;1.90;99.90;;;;;;4976054;28;20315;-64
2023/03/12 08:22:15;;;;;;;11.30;6.03;;;2.00;99.90;;;;;;4976449;28;20047;-64
2023/03/12 08:24:41;;;;;;;10.10;6.00;;;2.00;99.90;;;;;;4975702;28;21276;-63
2023/03/12 08:27:07;;;;;;;11.52;6.30;;;2.00;99.90;;;;;;4976531;28;20038;-64
2023/03/12 08:29:33;;;;;;;10.45;5.60;;;2.10;99.90;;;;;;5013381;28;20042;-62
2023/03/12 08:31:59;;;;;;;9.07;5.65;;;2.00;99.90;;;;;;4977679;28;20042;-63
2023/03/12 08:34:25;;;;;;;7.80;5.32;;;2.00;99.90;;;;;;4979708;28;20492;-63
2023/03/12 08:36:51;;;;;;;13.65;6.55;;;1.90;99.90;;;;;;4993422;28;20055;-63
2023/03/12 08:39:17;;;;;;;10.52;6.18;;;1.90;99.90;;;;;;4976825;28;20197;-64
2023/03/12 08:41:43;;;;;;;9.70;6.68;;;1.80;99.90;;;;;;5007014;28;20258;-64
2023/03/12 08:44:08;;;;;;;13.15;6.80;;;1.70;99.90;;;;;;4991594;28;20096;-63
2023/03/12 08:46:34;;;;;;;11.50;7.45;;;1.80;99.90;;;;;;5008563;28;20046;-63
2023/03/12 08:49:00;;;;;;;10.52;7.50;;;1.70;1.00;;;;;;5008615;28;20042;-64
2023/03/12 08:51:26;;;;;;;12.77;7.63;;;1.70;1.00;;;;;;4976033;28;20042;-63
2023/03/12 08:53:51;;;;;;;13.88;8.18;;;1.80;1.00;;;;;;4993366;28;20038;-64
2023/03/12 08:56:17;;;;;;;11.23;7.47;;;1.80;1.00;;;;;;4977696;28;20180;-61
2023/03/12 08:58:43;;;;;;;11.25;9.00;;;1.60;1.00;;;;;;4977975;28;20034;-63
2023/03/12 09:01:11;;;;;;;10.02;7.93;;;1.40;1.00;;;;;;4977908;28;20045;-63
2023/03/12 09:03:37;;;;;;;12.00;8.95;;;1.40;1.00;;;;;;5013129;28;20153;-64
2023/03/12 09:06:06;;;;;;;14.95;9.65;;;1.40;1.00;;;;;;4994807;28;20070;-63
2023/03/12 09:08:32;;;;;;;15.07;7.97;;;1.20;1.00;;;;;;4978174;28;20054;-62
2023/03/12 09:10:59;;;;;;;15.95;9.05;;;1.20;1.00;;;;;;4977961;28;20053;-62
2023/03/12 09:13:25;;;;;;;13.85;9.82;;;1.20;1.00;;;;;;4978606;28;20445;-63
2023/03/12 09:15:51;;;;;;;15.95;10.13;;;1.50;10.30;;;;;;4981331;28;20042;-64
2023/03/12 09:18:19;;;;;;;9.05;7.97;;;1.30;52.00;;;;;;4962217;28;20042;-63
2023/03/12 09:20:44;;;;;;;13.23;10.25;;;1.30;92.90;;;;;;5008095;28;20046;-63
2023/03/12 09:23:10;;;;;;;12.70;9.52;;;1.60;78.30;;;;;;4977014;28;20081;-65
2023/03/12 09:25:35;;;;;;;13.98;11.18;;;1.60;91.60;;;;;;4977636;28;20130;-63
2023/03/12 09:28:01;;;;;;;17.92;12.40;;;1.30;98.90;;;;;;5008426;28;20053;-63
2023/03/12 09:30:29;;;;;;;15.35;10.60;;;1.40;99.90;;;;;;4975044;28;21655;-62
2023/03/12 09:32:54;;;;;;;18.40;12.50;;;1.50;99.90;;;;;;4978878;28;20054;-64
2023/03/12 09:35:20;;;;;;;17.65;10.15;;;1.40;99.90;;;;;;5008353;28;20166;-63
2023/03/12 09:37:50;;;;;;;13.05;10.68;;;1.30;99.90;;;;;;5007100;28;20076;-63
2023/03/12 09:40:20;;;;;;;16.52;11.65;;;1.20;99.90;;;;;;5008138;28;20351;-65
2023/03/12 09:42:56;;;;;;;14.65;10.57;;;1.30;99.90;;;;;;4976258;28;20120;-64
2023/03/12 09:45:29;;;;;;;14.68;10.85;;;1.50;99.90;;;;;;4979021;28;20049;-65
2023/03/12 09:47:58;;;;;;;17.90;13.20;;;1.50;99.90;;;;;;5007678;28;20422;-62
2023/03/12 09:50:42;;;;;;;19.67;15.18;;;1.50;99.90;;;;;;4976045;28;20039;-63
2023/03/12 09:53:43;;;;;;;22.23;16.15;;;1.60;99.90;;;;;;4978639;28;20381;-64
2023/03/12 09:56:13;;;;;;;20.15;16.83;;;1.70;99.90;;;;;;4991349;28;20080;-64
2023/03/12 09:58:41;;;;;;;16.90;14.00;;;1.60;99.90;;;;;;4979659;28;20038;-64
2023/03/12 10:01:35;;;;;;;18.50;14.75;;;1.40;99.90;;;;;;4978143;28;20535;-64
2023/03/12 10:04:10;;;;;;;21.00;14.70;;;1.30;99.90;;;;;;4990512;28;20126;-62
2023/03/12 10:06:59;;;;;;;19.48;17.38;;;1.20;99.90;;;;;;4979602;28;20070;-63
2023/03/12 10:09:38;;;;;;;17.35;12.10;;;1.40;99.90;;;;;;4976777;28;20108;-63
2023/03/12 10:12:24;;;;;;;21.55;16.50;;;1.30;99.90;;;;;;4991650;28;20073;-63
2023/03/12 10:15:11;;;;;;;18.50;14.50;;;1.20;99.90;;;;;;4974726;28;20042;-63
2023/03/12 10:17:49;;;;;;;16.85;14.77;;;1.50;99.90;;;;;;5008107;28;20323;-63
2023/03/12 10:21:00;;;;;;;19.52;16.33;;;1.10;99.90;;;;;;4994783;28;20038;-63
2023/03/12 10:23:52;;;;;;;17.73;13.70;;;1.10;99.90;;;;;;4977391;28;20048;-63
2023/03/12 10:26:24;;;;;;;18.83;15.48;;;1.30;99.90;;;;;;4978003;28;20523;-64
2023/03/12 10:28:59;;;;;;;14.40;12.88;;;1.40;99.90;;;;;;5008416;28;20038;-63
2023/03/12 10:31:50;;;;;;;22.58;15.68;;;1.60;99.90;;;;;;4978228;28;20100;-63
2023/03/12 10:34:27;;;;;;;13.93;11.77;;;1.10;99.90;;;;;;4975180;28;20725;-63
2023/03/12 10:36:57;;;;;;;19.02;14.32;;;1.60;99.90;;;;;;4976043;28;20738;-64
2023/03/12 10:39:22;;;;;;;16.80;14.85;;;1.40;99.90;;;;;;5007605;28;20136;-63
2023/03/12 10:41:49;;;;;;;21.35;19.05;;;1.20;99.90;;;;;;4976569;28;20073;-62
2023/03/12 10:44:21;;;;;;;22.65;17.88;;;1.20;99.90;;;;;;4976919;28;20042;-62
2023/03/12 10:47:05;;;;;;;22.30;16.98;;;1.70;99.90;;;;;;4976297;28;20132;-62
2023/03/12 10:49:36;;;;;;;20.20;17.58;;;1.70;99.90;;;;;;4995156;28;20061;-63
2023/03/12 10:52:13;;;;;;;18.83;16.85;;;1.80;99.90;;;;;;4976408;28;20061;-63
2023/03/12 10:54:42;;;;;;;26.20;21.60;;;1.80;99.90;;;;;;4976443;28;20034;-63
2023/03/12 10:57:08;;;;;;;23.83;18.65;;;1.90;99.90;;;;;;4978216;28;20093;-62
2023/03/12 10:59:42;;;;;;;19.13;16.90;;;1.70;1.00;;;;;;4977256;28;20435;-63
2023/03/12 11:02:55;;;;;;;23.00;20.58;;;1.50;1.00;;;;;;4977998;28;20046;-63
2023/03/12 11:05:28;;;;;;;24.75;21.63;;;1.50;1.00;;;;;;4958874;28;20552;-64
2023/03/12 11:07:54;;;;;;;23.23;19.88;;;1.90;1.00;;;;;;4956873;28;20050;-63
2023/03/12 11:10:36;;;;;;;23.50;21.02;;;1.30;1.00;;;;;;4990409;28;20527;-63
2023/03/12 11:13:05;;;;;;;23.25;18.77;;;1.90;1.00;;;;;;5008211;28;20133;-63
2023/03/12 11:15:39;;;;;;;25.00;21.45;;;1.50;1.00;;;;;;4974348;28;20112;-63
2023/03/12 11:18:19;;;;;;;23.88;21.27;;;1.30;1.00;;;;;;4975204;28;20046;-63
2023/03/12 11:20:46;;;;;;;20.83;18.65;;;1.30;1.00;;;;;;4976141;28;20034;-63
2023/03/12 11:23:18;;;;;;;23.83;21.10;;;2.00;1.00;;;;;;4976838;28;20050;-62
2023/03/12 11:25:52;;;;;;;24.35;21.77;;;1.20;1.00;;;;;;4959582;28;20039;-61
2023/03/12 11:28:23;;;;;;;24.05;21.52;;;1.90;1.00;;;;;;5006993;28;20317;-62
2023/03/12 11:30:52;;;;;;;22.52;20.02;;;2.10;1.00;;;;;;4975806;28;20323;-62
2023/03/12 11:33:17;;;;;;;25.40;22.67;;;2.10;1.00;;;;;;5007411;28;20050;-62
2023/03/12 11:36:16;;;;;;;23.75;21.23;;;1.20;1.00;;;;;;4990025;28;20054;-63
2023/03/12 11:39:00;;;;;;;24.13;21.55;;;1.90;36.30;;;;;;4974300;28;20525;-63
2023/03/12 11:41:26;;;;;;;;;;;1.30;45.10;;;;;;4992638;28;20378;-63
2023/03/12 11:44:00;;;;;;;30.70;25.00;;;1.50;67.10;;;;;;4975855;28;20080;-62
2023/03/12 11:46:37;;;;;;;28.25;25.17;;;2.20;83.70;;;;;;5010567;28;20183;-62
2023/03/12 11:49:27;;;;;;;32.63;27.92;;;1.50;97.40;;;;;;4975595;28;20050;-62
2023/03/12 11:52:17;;;;;;;27.38;24.05;;;1.50;99.90;;;;;;4975535;28;21135;-63
2023/03/12 11:55:05;;;;;;;25.45;21.90;;;1.60;99.90;;;;;;4978367;28;20096;-63
2023/03/12 11:57:46;;;;;;;27.20;24.17;;;1.50;99.90;;;;;;4992805;28;20096;-63
2023/03/12 12:00:24;;;;;;;32.33;26.63;;;2.20;99.90;;;;;;4975394;28;20413;-65
2023/03/12 12:02:58;;;;;;;34.45;27.42;;;2.60;99.90;;;;;;4993364;28;20039;-64
2023/03/12 12:05:43;;;;;;;35.75;28.85;;;2.70;99.90;;;;;;4975910;28;20041;-63
2023/03/12 12:08:15;;;;;;;40.08;31.25;;;1.60;99.90;;;;;;4990483;28;20049;-65
2023/03/12 12:10:51;;;;;;;39.33;32.42;;;2.30;99.90;;;;;;4959857;28;20280;-67
2023/03/12 12:13:49;;;;;;;34.28;28.60;;;2.70;99.90;;;;;;4974032;28;20061;-63
2023/03/12 12:16:24;;;;;;;38.70;30.90;;;1.90;99.90;;;;;;4990206;28;20058;-63
2023/03/12 12:18:59;;;;;;;25.85;21.00;;;2.30;99.90;;;;;;4975029;28;20345;-63
2023/03/12 12:21:31;;;;;;;37.95;29.80;;;2.90;99.90;;;;;;5004995;28;20038;-64
2023/03/12 12:24:20;;;;;;;38.83;29.58;;;2.70;99.90;;;;;;4975886;28;20069;-63
2023/03/12 12:27:12;;;;;;;36.88;28.90;;;3.10;99.90;;;;;;4974408;28;20461;-64
2023/03/12 12:30:03;;;;;;;37.25;29.77;;;2.10;99.90;;;;;;4975984;28;20102;-62
2023/03/12 12:32:37;;;;;;;44.70;35.38;;;3.20;99.90;;;;;;4981208;28;20132;-63
2023/03/12 12:35:34;;;;;;;39.50;31.50;;;3.30;99.90;;;;;;5014463;28;20471;-64
2023/03/12 12:38:29;;;;;;;40.80;31.90;;;3.30;99.90;;;;;;4978031;28;20334;-63
2023/03/12 12:41:06;;;;;;;40.00;31.77;;;3.00;99.90;;;;;;5011906;28;20056;-63
2023/03/12 12:43:37;;;;;;;43.25;34.83;;;2.80;99.90;;;;;;4976879;28;20042;-65
2023/03/12 12:46:07;;;;;;;47.50;35.38;;;3.10;99.90;;;;;;4978795;28;20053;-64
2023/03/12 12:48:48;;;;;;;46.75;34.83;;;2.70;99.90;;;;;;4980751;28;20038;-65
2023/03/12 12:51:18;;;;;;;40.42;31.60;;;3.30;99.90;;;;;;4977348;28;20358;-65
2023/03/12 12:53:56;;;;;;;39.75;31.80;;;2.90;99.90;;;;;;4991549;28;20054;-62
2023/03/12 12:56:33;;;;;;;46.63;34.08;;;3.00;99.90;;;;;;4963683;28;20561;-63
2023/03/12 12:59:08;;;;;;;48.63;36.70;;;3.10;99.90;;;;;;4977680;28;20050;-62
2023/03/12 13:01:36;;;;;;;53.00;37.50;;;3.20;99.90;;;;;;4993508;28;20109;-62